createdAt,value
2023-02-12T00:00:21.667Z,18.30
2023-02-12T00:04:26.684Z,19.75
2023-02-12T00:08:30.191Z,19.70
2023-02-12T00:12:33.879Z,27.27
2023-02-12T00:16:37.624Z,23.55
2023-02-12T00:20:42.605Z,18.95
2023-02-12T00:24:46.111Z,19.98
2023-02-12T00:28:49.928Z,20.00
2023-02-12T00:32:56.922Z,19.55
2023-02-12T00:37:02.120Z,18.67
2023-02-12T00:41:09.646Z,27.35
2023-02-12T00:45:22.700Z,21.35
2023-02-12T00:49:26.741Z,19.20
2023-02-12T00:53:32.868Z,18.92
2023-02-12T00:57:36.654Z,19.33
2023-02-12T01:01:40.472Z,20.33
2023-02-12T01:05:46.305Z,19.30
2023-02-12T01:09:52.669Z,26.65
2023-02-12T01:13:58.008Z,25.02
2023-02-12T01:18:02.553Z,23.67
2023-02-12T01:22:09.641Z,30.45
2023-02-12T01:26:18.513Z,20.17
2023-02-12T01:30:24.417Z,20.75
2023-02-12T01:34:29.852Z,20.58
2023-02-12T01:38:39.886Z,20.67
2023-02-12T01:42:51.108Z,18.90
2023-02-12T01:47:06.037Z,23.27
2023-02-12T01:51:20.443Z,19.63
2023-02-12T01:55:28.362Z,23.85
2023-02-12T01:59:37.862Z,26.13
2023-02-12T02:03:46.053Z,22.70
2023-02-12T02:07:53.147Z,22.98
2023-02-12T02:12:15.556Z,25.85
2023-02-12T02:16:24.630Z,20.92
2023-02-12T02:20:50.957Z,28.40
2023-02-12T02:25:25.790Z,20.35
2023-02-12T02:29:49.692Z,19.42
2023-02-12T02:33:58.369Z,19.42
2023-02-12T02:38:13.359Z,20.23
2023-02-12T02:42:19.412Z,19.63
2023-02-12T02:46:28.217Z,19.88
2023-02-12T02:50:36.248Z,26.23
2023-02-12T02:54:51.379Z,21.40
2023-02-12T02:59:06.380Z,26.20
2023-02-12T03:03:17.471Z,24.80
2023-02-12T03:07:27.505Z,19.80
2023-02-12T03:11:33.479Z,19.55
2023-02-12T03:15:42.935Z,19.15
2023-02-12T03:19:52.320Z,22.42
2023-02-12T03:24:03.973Z,21.10
2023-02-12T03:28:13.689Z,18.15
2023-02-12T03:32:26.022Z,19.17
2023-02-12T03:36:36.293Z,26.27
2023-02-12T03:40:43.772Z,21.70
2023-02-12T03:44:54.441Z,20.95
2023-02-12T03:49:03.151Z,29.10
2023-02-12T03:53:17.845Z,19.63
2023-02-12T03:57:31.773Z,19.92
2023-02-12T04:01:39.402Z,21.05
2023-02-12T04:05:46.778Z,20.27
2023-02-12T04:09:53.613Z,24.10
2023-02-12T04:14:10.788Z,19.33
2023-02-12T04:18:18.057Z,20.00
2023-02-12T04:22:31.576Z,18.45
2023-02-12T04:26:39.415Z,17.95
2023-02-12T04:30:47.894Z,24.55
2023-02-12T04:34:55.926Z,18.17
2023-02-12T04:39:05.728Z,18.63
2023-02-12T04:43:12.352Z,18.50
2023-02-12T04:47:19.402Z,20.92
2023-02-12T04:51:23.055Z,18.73
2023-02-12T04:55:29.842Z,25.25
2023-02-12T04:59:34.666Z,18.33
2023-02-12T05:03:43.002Z,19.17
2023-02-12T05:07:47.005Z,19.42
2023-02-12T05:11:59.993Z,17.70
2023-02-12T05:16:18.371Z,17.85
2023-02-12T05:20:26.890Z,18.20
2023-02-12T05:24:31.421Z,17.88
2023-02-12T05:28:41.916Z,21.25
2023-02-12T05:36:53.789Z,18.58
2023-02-12T05:41:03.363Z,18.08
2023-02-12T05:45:08.646Z,17.90
2023-02-12T05:49:12.814Z,24.20
2023-02-12T05:53:18.311Z,17.50
2023-02-12T05:57:23.506Z,18.38
2023-02-12T06:01:29.411Z,19.05
2023-02-12T06:05:35.134Z,22.15
2023-02-12T06:09:41.027Z,21.73
2023-02-12T06:13:44.724Z,18.45
2023-02-12T06:17:51.499Z,17.55
2023-02-12T06:21:55.226Z,23.50
2023-02-12T06:26:03.677Z,26.30
2023-02-12T06:30:08.619Z,20.85
2023-02-12T06:34:16.712Z,18.58
2023-02-12T06:38:20.976Z,18.67
2023-02-12T06:46:30.029Z,18.60
2023-02-12T06:54:38.340Z,19.75
2023-02-12T06:58:46.123Z,18.92
2023-02-12T07:02:57.270Z,19.20
2023-02-12T07:07:01.118Z,18.50
2023-02-12T07:11:05.062Z,25.98
2023-02-12T07:15:11.328Z,19.48
2023-02-12T07:19:17.624Z,18.85
2023-02-12T07:23:24.800Z,25.17
2023-02-12T07:27:31.359Z,18.85
2023-02-12T07:31:36.478Z,22.88
2023-02-12T07:35:40.647Z,26.25
2023-02-12T07:43:50.149Z,21.88
2023-02-12T07:47:55.084Z,24.55
2023-02-12T07:51:58.723Z,23.73
2023-02-12T07:56:16.476Z,24.25
2023-02-12T08:00:21.131Z,24.80
2023-02-12T08:04:27.336Z,20.70
2023-02-12T08:08:30.889Z,21.05
2023-02-12T08:12:34.548Z,21.58
2023-02-12T08:16:45.508Z,20.60
2023-02-12T08:20:50.778Z,17.98
2023-02-12T08:24:54.843Z,18.60
2023-02-12T08:33:06.076Z,18.00
2023-02-12T08:37:11.766Z,17.42
2023-02-12T08:41:21.626Z,17.33
2023-02-12T08:45:27.905Z,17.23
2023-02-12T08:49:32.270Z,16.35
2023-02-12T08:53:38.366Z,18.13
2023-02-12T08:57:44.249Z,16.80
2023-02-12T09:01:51.470Z,16.48
2023-02-12T09:06:02.857Z,17.17
2023-02-12T09:10:09.088Z,16.05
2023-02-12T09:14:30.023Z,16.27
2023-02-12T09:18:37.430Z,15.63
2023-02-12T09:22:41.330Z,14.32
2023-02-12T09:26:46.206Z,16.05
2023-02-12T09:30:50.162Z,14.27
2023-02-12T09:39:09.803Z,13.73
2023-02-12T09:43:25.927Z,15.20
2023-02-12T09:47:36.056Z,14.13
2023-02-12T09:55:48.535Z,13.45
2023-02-12T09:59:58.009Z,13.43
2023-02-12T10:04:02.723Z,12.63
2023-02-12T10:08:32.627Z,13.45
2023-02-12T10:12:42.714Z,13.00
2023-02-12T10:16:54.854Z,10.75
2023-02-12T10:21:09.759Z,9.15
2023-02-12T10:25:23.701Z,9.93
2023-02-12T10:29:34.015Z,10.52
2023-02-12T10:33:49.870Z,10.50
2023-02-12T10:38:02.169Z,10.52
2023-02-12T10:42:17.582Z,10.52
2023-02-12T10:46:27.763Z,9.02
2023-02-12T10:50:54.802Z,12.93
2023-02-12T10:55:00.729Z,8.90
2023-02-12T10:59:07.145Z,10.70
2023-02-12T11:03:23.719Z,9.32
2023-02-12T11:07:50.211Z,8.35
2023-02-12T11:11:56.498Z,9.65
2023-02-12T11:16:02.617Z,9.38
2023-02-12T11:20:26.375Z,9.30
2023-02-12T11:24:37.792Z,8.93
2023-02-12T11:28:55.154Z,11.40
2023-02-12T11:33:18.843Z,10.43
2023-02-12T11:37:25.476Z,10.23
2023-02-12T11:41:36.560Z,9.82
2023-02-12T11:45:50.498Z,10.18
2023-02-12T11:49:59.563Z,8.95
2023-02-12T11:54:07.194Z,8.15
2023-02-12T11:58:19.980Z,9.00
2023-02-12T12:02:27.872Z,9.20
2023-02-12T12:06:39.130Z,8.15
2023-02-12T12:10:46.572Z,9.07
2023-02-12T12:15:23.191Z,8.75
2023-02-12T12:19:50.835Z,7.53
2023-02-12T12:24:00.104Z,8.20
2023-02-12T12:28:11.286Z,8.73
2023-02-12T12:32:22.006Z,10.35
2023-02-12T12:37:06.812Z,8.98
2023-02-12T12:41:20.383Z,7.43
2023-02-12T12:45:41.300Z,8.07
2023-02-12T12:50:01.946Z,8.68
2023-02-12T12:54:22.753Z,8.63
2023-02-12T12:58:38.049Z,8.15
2023-02-12T13:03:10.857Z,8.98
2023-02-12T13:07:24.519Z,8.65
2023-02-12T13:11:38.024Z,8.70
2023-02-12T13:15:47.117Z,8.93
2023-02-12T13:20:02.515Z,8.68
2023-02-12T13:24:21.997Z,7.35
2023-02-12T13:28:49.591Z,7.53
2023-02-12T13:33:05.240Z,7.57
2023-02-12T13:37:17.036Z,8.57
2023-02-12T13:41:23.348Z,7.30
2023-02-12T13:45:39.970Z,8.60
2023-02-12T13:49:49.844Z,8.98
2023-02-12T13:54:03.867Z,8.23
2023-02-12T13:58:45.731Z,7.97
2023-02-12T14:02:54.750Z,8.30
2023-02-12T14:07:03.895Z,10.27
2023-02-12T14:11:12.471Z,7.60
2023-02-12T14:15:42.382Z,6.75
2023-02-12T14:19:59.335Z,6.88
2023-02-12T14:24:53.597Z,7.05
2023-02-12T14:29:01.041Z,7.93
2023-02-12T14:33:30.600Z,7.57
2023-02-12T14:37:43.443Z,7.72
2023-02-12T14:41:58.496Z,7.35
2023-02-12T14:46:38.725Z,7.82
2023-02-12T14:50:50.684Z,9.15
2023-02-12T14:54:58.022Z,6.75
2023-02-12T14:59:07.870Z,6.82
2023-02-12T15:03:25.877Z,7.53
2023-02-12T15:07:33.778Z,6.82
2023-02-12T15:11:46.935Z,6.55
2023-02-12T15:15:54.792Z,6.85
2023-02-12T15:20:03.078Z,7.07
2023-02-12T15:24:08.256Z,6.93
2023-02-12T15:28:21.353Z,7.13
2023-02-12T15:32:26.993Z,6.38
2023-02-12T15:36:34.012Z,6.93
2023-02-12T15:40:37.431Z,7.15
2023-02-12T15:44:42.692Z,6.72
2023-02-12T15:48:50.837Z,6.53
2023-02-12T15:52:58.380Z,6.65
2023-02-12T15:57:05.832Z,6.30
2023-02-12T16:01:21.183Z,6.60
2023-02-12T16:05:25.691Z,6.47
2023-02-12T16:09:32.667Z,6.55
2023-02-12T16:13:37.707Z,6.82
2023-02-12T16:17:48.369Z,6.50
2023-02-12T16:21:54.337Z,5.38
2023-02-12T16:26:01.933Z,6.28
2023-02-12T16:30:08.781Z,6.75
2023-02-12T16:34:32.944Z,6.25
2023-02-12T16:38:46.812Z,6.47
2023-02-12T16:43:08.014Z,7.32
2023-02-12T16:47:27.287Z,6.97
2023-02-12T16:51:34.106Z,6.05
2023-02-12T16:55:38.457Z,6.80
2023-02-12T16:59:48.228Z,5.53
2023-02-12T17:04:04.397Z,7.20
2023-02-12T17:08:12.830Z,7.00
2023-02-12T17:12:19.104Z,5.38
2023-02-12T17:16:32.247Z,5.43
2023-02-12T17:20:44.651Z,5.60
2023-02-12T17:24:54.858Z,5.25
2023-02-12T17:29:05.740Z,5.25
2023-02-12T17:33:10.079Z,7.22
2023-02-12T17:37:26.971Z,6.90
2023-02-12T17:42:00.850Z,6.35
2023-02-12T17:46:10.788Z,6.75
2023-02-12T17:50:16.514Z,6.38
2023-02-12T17:59:03.848Z,5.55
2023-02-12T18:03:17.028Z,5.70
2023-02-12T18:07:25.545Z,6.55
2023-02-12T18:11:33.401Z,8.05
2023-02-12T18:15:48.412Z,8.40
2023-02-12T18:19:55.985Z,8.95
2023-02-12T18:24:00.471Z,8.13
2023-02-12T18:32:16.656Z,8.07
2023-02-12T18:36:32.511Z,17.17
2023-02-12T18:40:36.153Z,9.40
2023-02-12T18:44:52.780Z,9.20
2023-02-12T18:49:01.742Z,7.82
2023-02-12T18:53:06.383Z,14.20
2023-02-12T18:57:13.886Z,9.00
2023-02-12T19:01:18.908Z,10.35
2023-02-12T19:10:09.249Z,10.05
2023-02-12T19:14:20.111Z,11.02
2023-02-12T19:18:30.668Z,13.23
2023-02-12T19:22:37.018Z,11.10
2023-02-12T19:26:44.768Z,10.02
2023-02-12T19:30:49.045Z,8.85
2023-02-12T19:34:52.856Z,8.07
2023-02-12T19:38:58.870Z,7.15
2023-02-12T19:43:02.994Z,7.45
2023-02-12T19:47:06.858Z,7.93
2023-02-12T19:51:20.763Z,9.55
2023-02-12T19:55:26.116Z,7.78
2023-02-12T19:59:34.310Z,9.60
2023-02-12T20:03:52.629Z,8.80
2023-02-12T20:07:56.227Z,9.50
2023-02-12T20:12:16.667Z,8.23
2023-02-12T20:16:22.980Z,12.88
2023-02-12T20:20:26.870Z,9.18
2023-02-12T20:24:41.095Z,9.63
2023-02-12T20:28:57.509Z,10.30
2023-02-12T20:33:14.294Z,10.60
2023-02-12T20:37:18.808Z,13.57
2023-02-12T20:41:41.350Z,9.77
2023-02-12T20:46:30.686Z,10.10
2023-02-12T20:50:45.237Z,10.30
2023-02-12T20:55:05.548Z,12.95
2023-02-12T20:59:17.404Z,24.20
2023-02-12T21:03:28.766Z,11.23
2023-02-12T21:07:35.105Z,13.30
2023-02-12T21:16:26.183Z,20.15
2023-02-12T21:20:41.865Z,12.82
2023-02-12T21:24:48.765Z,28.92
2023-02-12T21:29:05.010Z,14.80
2023-02-12T21:33:09.374Z,18.77
2023-02-12T21:37:20.562Z,16.45
2023-02-12T21:41:28.684Z,26.05
2023-02-12T21:45:41.275Z,24.02
2023-02-12T21:49:45.617Z,16.02
2023-02-12T21:54:05.260Z,19.33
2023-02-12T21:58:39.182Z,33.40
2023-02-12T22:02:55.190Z,18.50
2023-02-12T22:07:08.631Z,19.40
2023-02-12T22:11:26.796Z,38.92
2023-02-12T22:15:49.650Z,18.08
2023-02-12T22:20:22.450Z,15.55
2023-02-12T22:24:55.910Z,15.77
2023-02-12T22:29:18.045Z,19.20
2023-02-12T22:33:25.470Z,15.57
2023-02-12T22:37:36.306Z,15.00
2023-02-12T22:42:13.775Z,28.63
2023-02-12T22:46:26.755Z,16.45
2023-02-12T22:50:31.952Z,22.30
2023-02-12T22:54:44.360Z,14.30
2023-02-12T22:58:52.242Z,14.57
2023-02-12T23:03:00.269Z,15.10
2023-02-12T23:07:06.990Z,15.60
2023-02-12T23:11:12.116Z,13.35
2023-02-12T23:15:16.011Z,16.95
2023-02-12T23:19:25.093Z,14.98
2023-02-12T23:23:29.600Z,17.52
2023-02-12T23:27:35.604Z,15.88
2023-02-12T23:31:41.939Z,14.73
2023-02-12T23:35:51.904Z,21.48
2023-02-12T23:39:56.368Z,14.15
2023-02-12T23:44:02.107Z,14.82
2023-02-12T23:48:11.698Z,14.25
2023-02-12T23:52:22.528Z,14.70
2023-02-12T23:56:33.711Z,17.10
